Time;durP1;ratioP1;P1;durP2;ratioP2;P2;SDS_P1;SDS_P2;PMS_P1;PMS_P2;Temp;Humidity;BMP_temperature;BMP_pressure;BME280_temperature;BME280_humidity;BME280_pressure;Samples;Min_cycle;Max_cycle;Signal;HPM_P1;HPM_P2
2022/08/08 00:01:14;;;;;;;8.25;4.75;;;;;;;21.14;nan;-24404.84;5035705;28;20179;-76
2022/08/08 00:04:05;;;;;;;8.77;4.85;;;;;;;21.11;nan;-24404.00;5027945;28;20541;-76
2022/08/08 00:06:42;;;;;;;8.52;4.88;;;;;;;21.43;nan;-24412.72;5031092;28;20179;-75
2022/08/08 00:09:17;;;;;;;7.45;4.53;;;;;;;21.30;nan;-24409.13;5027902;28;20293;-76
2022/08/08 00:12:00;;;;;;;6.88;4.43;;;;;;;21.15;nan;-24404.97;5029441;28;20175;-76
2022/08/08 00:14:38;;;;;;;6.68;4.63;;;;;;;21.46;nan;-24413.44;5029044;28;20317;-76
2022/08/08 00:17:28;;;;;;;8.48;5.00;;;;;;;21.25;nan;-24407.75;5030300;28;20273;-76
2022/08/08 00:20:01;;;;;;;8.27;4.75;;;;;;;21.24;nan;-24407.31;5028295;28;20175;-76
2022/08/08 00:22:35;;;;;;;8.40;4.90;;;;;;;21.25;nan;-24407.75;5029982;28;20197;-76
2022/08/08 00:25:07;;;;;;;7.65;4.85;;;;;;;21.04;nan;-24401.91;5030018;28;20179;-76
2022/08/08 00:27:34;;;;;;;10.75;5.38;;;;;;;20.93;nan;-24398.88;5025816;28;20222;-76
2022/08/08 00:30:05;;;;;;;10.10;5.13;;;;;;;20.86;nan;-24396.91;5028835;28;20191;-75
2022/08/08 00:32:55;;;;;;;8.55;5.25;;;;;;;21.13;nan;-24404.41;5029038;28;20209;-76
2022/08/08 00:35:35;;;;;;;8.60;5.32;;;;;;;21.15;nan;-24405.09;5027545;28;20615;-75
2022/08/08 00:38:06;;;;;;;9.32;5.38;;;;;;;21.13;nan;-24404.56;5030174;28;20195;-76
2022/08/08 00:40:38;;;;;;;11.23;5.28;;;;;;;21.06;nan;-24402.47;5029022;28;20241;-75
2022/08/08 00:43:22;;;;;;;8.07;5.03;;;;;;;20.83;nan;-24396.09;5029350;28;20278;-75
2022/08/08 00:46:05;;;;;;;10.60;5.40;;;;;;;20.42;nan;-24385.00;5027226;28;20257;-75
2022/08/08 00:49:08;;;;;;;7.07;4.82;;;;;;;20.73;nan;-24393.44;5028516;28;20565;-76
2022/08/08 00:52:05;;;;;;;8.23;5.45;;;;;;;20.67;nan;-24391.94;5034697;28;20192;-76
2022/08/08 00:54:58;;;;;;;9.32;5.70;;;;;;;20.64;nan;-24390.97;5029788;28;20641;-76
2022/08/08 00:57:57;;;;;;;13.48;5.68;;;;;;;20.79;nan;-24395.13;5027182;28;20191;-75
2022/08/08 01:00:25;;;;;;;10.88;5.78;;;;;;;20.55;nan;-24388.59;5028352;28;20179;-75
2022/08/08 01:03:15;;;;;;;10.50;6.22;;;;;;;20.72;nan;-24393.19;5029640;28;20244;-75
2022/08/08 01:05:58;;;;;;;12.88;6.75;;;;;;;20.72;nan;-24393.31;5027022;28;20722;-74
2022/08/08 01:08:48;;;;;;;11.40;6.45;;;;;;;20.48;nan;-24386.66;5028096;28;20265;-75
2022/08/08 01:11:51;;;;;;;12.20;6.72;;;;;;;20.43;nan;-24385.13;5030489;28;20179;-75
2022/08/08 01:14:45;;;;;;;12.20;6.40;;;;;;;20.54;nan;-24388.19;5029840;28;20353;-75
2022/08/08 01:17:34;;;;;;;11.00;6.55;;;;;;;20.37;nan;-24383.47;5030245;28;20187;-75
2022/08/08 01:20:25;;;;;;;11.38;7.05;;;;;;;20.22;nan;-24379.56;5028717;28;20659;-76
2022/08/08 01:23:09;;;;;;;11.65;6.20;;;;;;;20.15;nan;-24377.47;5028229;28;20198;-75
2022/08/08 01:25:50;;;;;;;14.05;6.15;;;;;;;20.13;nan;-24377.06;5029816;28;20171;-75
2022/08/08 01:28:28;;;;;;;10.45;6.80;;;;;;;20.22;nan;-24379.56;5028979;28;20246;-75
2022/08/08 01:31:05;;;;;;;10.75;6.00;;;;;;;20.23;nan;-24379.84;5029199;28;20655;-75
2022/08/08 01:34:03;;;;;;;12.27;6.55;;;;;;;20.21;nan;-24379.16;5027564;28;20220;-75
2022/08/08 01:36:56;;;;;;;11.10;6.20;;;;;;;20.24;nan;-24380.00;5023380;28;20670;-75
2022/08/08 01:39:29;;;;;;;10.23;6.05;;;;;;;20.05;nan;-24374.84;5031338;28;20187;-75
2022/08/08 01:42:07;;;;;;;9.18;5.60;;;;;;;20.04;nan;-24374.56;5030997;28;20183;-75
2022/08/08 01:44:41;;;;;;;9.60;5.60;;;;;;;20.12;nan;-24376.66;5032221;28;20221;-75
2022/08/08 01:47:12;;;;;;;10.65;6.22;;;;;;;20.01;nan;-24373.72;5031973;28;20257;-75
2022/08/08 01:49:59;;;;;;;10.43;6.10;;;;;;;20.05;nan;-24374.72;5029841;28;20206;-75
2022/08/08 01:52:56;;;;;;;9.93;5.82;;;;;;;19.99;nan;-24373.19;5033182;28;20277;-75
2022/08/08 01:55:33;;;;;;;14.70;5.75;;;;;;;19.85;nan;-24369.44;5032181;28;20314;-75
2022/08/08 01:58:17;;;;;;;11.10;6.18;;;;;;;19.71;nan;-24365.41;5032761;28;20187;-75
2022/08/08 02:01:11;;;;;;;13.00;6.70;;;;;;;19.76;nan;-24366.78;5031851;28;20203;-77
2022/08/08 02:04:04;;;;;;;10.73;6.32;;;;;;;19.79;nan;-24367.63;5032249;28;20638;-75
2022/08/08 02:07:05;;;;;;;10.65;6.25;;;;;;;19.87;nan;-24369.72;5030192;28;20175;-75
2022/08/08 02:09:39;;;;;;;10.18;5.82;;;;;;;19.89;nan;-24370.41;5029866;28;20222;-74
2022/08/08 02:12:23;;;;;;;11.57;6.38;;;;;;;19.79;nan;-24367.63;5039091;28;20547;-75
2022/08/08 02:15:03;;;;;;;11.98;5.80;;;;;;;19.67;nan;-24364.44;5032852;28;20317;-75
2022/08/08 02:17:44;;;;;;;10.80;6.18;;;;;;;19.38;nan;-24356.34;5030083;28;20179;-75
2022/08/08 02:20:30;;;;;;;10.90;5.72;;;;;;;19.29;nan;-24354.00;5029943;28;20191;-75
2022/08/08 02:23:12;;;;;;;10.07;6.15;;;;;;;19.61;nan;-24362.63;5031984;28;20167;-76
2022/08/08 02:25:56;;;;;;;8.43;5.38;;;;;;;19.38;nan;-24356.50;5031356;28;20254;-76
2022/08/08 02:28:49;;;;;;;9.32;5.60;;;;;;;19.66;nan;-24364.16;5031299;28;20336;-75
2022/08/08 02:31:32;;;;;;;8.48;5.22;;;;;;;19.74;nan;-24366.38;5031223;28;20642;-75
2022/08/08 02:34:00;;;;;;;11.82;5.60;;;;;;;19.71;nan;-24365.53;5031653;28;20175;-75
2022/08/08 02:36:37;;;;;;;8.10;4.80;;;;;;;19.65;nan;-24363.72;5030655;28;20270;-75
2022/08/08 02:39:37;;;;;;;8.30;5.35;;;;;;;19.27;nan;-24353.44;5030673;28;20246;-75
2022/08/08 02:42:58;;;;;;;13.27;5.85;;;;;;;19.71;nan;-24365.53;5032032;28;20852;-75
2022/08/08 02:45:26;;;;;;;9.23;5.03;;;;;;;19.15;nan;-24350.09;4944887;29;20232;-75
2022/08/08 02:48:33;;;;;;;10.05;5.90;;;;;;;19.67;nan;-24364.44;5014944;28;20548;-75
2022/08/08 02:51:14;;;;;;;9.77;5.60;;;;;;;19.46;nan;-24358.44;5026973;28;20202;-75
2022/08/08 02:54:23;;;;;;;8.50;5.22;;;;;;;19.41;nan;-24357.34;5029923;28;20244;-75
2022/08/08 02:57:04;;;;;;;8.88;5.53;;;;;;;19.11;nan;-24348.84;4960255;28;20665;-75
2022/08/08 02:59:47;;;;;;;9.25;5.57;;;;;;;19.69;nan;-24364.84;5023323;28;20209;-75
2022/08/08 03:02:43;;;;;;;9.90;5.43;;;;;;;19.51;nan;-24359.84;5030406;28;20179;-75
2022/08/08 03:06:00;;;;;;;8.93;5.18;;;;;;;19.60;nan;-24362.34;5030988;28;20194;-75
2022/08/08 03:08:26;;;;;;;8.32;5.03;;;;;;;19.54;nan;-24360.66;5014687;28;20617;-75
2022/08/08 03:10:51;;;;;;;9.90;6.05;;;;;;;19.57;nan;-24361.50;5030847;28;20182;-75
2022/08/08 03:13:35;;;;;;;7.70;4.80;;;;;;;19.54;nan;-24360.66;5030295;28;20190;-75
2022/08/08 03:16:23;;;;;;;11.98;5.30;;;;;;;18.87;nan;-24342.44;5030516;28;20612;-75
2022/08/08 03:18:51;;;;;;;10.00;5.70;;;;;;;19.42;nan;-24357.47;5043653;28;20167;-76
2022/08/08 03:21:17;;;;;;;9.05;5.07;;;;;;;19.49;nan;-24359.28;5029661;28;20542;-76
2022/08/08 03:23:42;;;;;;;10.00;6.13;;;;;;;19.10;nan;-24348.69;5024296;28;20176;-75
2022/08/08 03:26:08;;;;;;;10.25;5.40;;;;;;;19.37;nan;-24356.22;5025770;28;20182;-75
2022/08/08 03:28:47;;;;;;;10.82;6.18;;;;;;;19.14;nan;-24349.69;5024430;28;20211;-75
2022/08/08 03:34:07;;;;;;;9.60;5.90;;;;;;;19.38;nan;-24356.34;5025636;28;20226;-75
2022/08/08 03:36:39;;;;;;;9.77;6.10;;;;;;;20.06;nan;-24375.00;5025238;28;20189;-75
2022/08/08 03:39:05;;;;;;;10.55;6.03;;;;;;;20.36;nan;-24383.19;5024844;28;20244;-74
2022/08/08 03:41:32;;;;;;;10.52;6.05;;;;;;;20.83;nan;-24396.09;5025501;28;20245;-75
2022/08/08 03:43:58;;;;;;;11.80;6.25;;;;;;;21.67;nan;-24419.09;5025519;28;20183;-75
2022/08/08 03:46:23;;;;;;;10.23;5.97;;;;;;;22.06;nan;-24429.78;5026153;28;20188;-75
2022/08/08 03:49:00;;;;;;;9.57;5.72;;;;;;;23.06;nan;-24457.16;5026950;28;20690;-75
2022/08/08 03:51:26;;;;;;;9.85;5.32;;;;;;;23.48;nan;-24468.78;5025797;28;20191;-76
2022/08/08 03:53:53;;;;;;;9.57;5.50;;;;;;;24.17;nan;-24487.69;5023976;28;20257;-75
2022/08/08 03:56:20;;;;;;;9.63;5.90;;;;;;;24.60;nan;-24499.38;5024488;28;20183;-75
2022/08/08 03:58:50;;;;;;;7.93;5.07;;;;;;;25.06;nan;-24511.91;5026285;28;20262;-75
2022/08/08 04:01:16;;;;;;;8.18;4.95;;;;;;;25.95;nan;-24536.00;5038028;28;20550;-75
2022/08/08 04:03:46;;;;;;;7.55;5.25;;;;;;;26.21;nan;-24543.16;5025302;28;20202;-75
2022/08/08 04:06:13;;;;;;;10.07;4.85;;;;;;;26.74;nan;-24557.44;5025020;28;20190;-75
2022/08/08 04:08:39;;;;;;;10.15;5.40;;;;;;;27.28;nan;-24572.09;5025081;28;20217;-75
2022/08/08 04:11:05;;;;;;;10.32;5.90;;;;;;;27.94;nan;-24590.06;5024985;28;20524;-75
2022/08/08 04:13:31;;;;;;;9.45;5.82;;;;;;;28.07;nan;-24593.63;5024860;28;20367;-75
2022/08/08 04:15:56;;;;;;;7.35;5.13;;;;;;;27.38;nan;-24574.72;5024329;28;20658;-75
2022/08/08 04:18:22;;;;;;;7.93;4.68;;;;;;;27.82;nan;-24586.78;5022932;28;20206;-76
2022/08/08 04:20:48;;;;;;;11.45;5.18;;;;;;;27.96;nan;-24590.59;5024189;28;20179;-76
2022/08/08 04:23:13;;;;;;;10.55;5.60;;;;;;;28.21;nan;-24597.19;5024825;28;20159;-75
2022/08/08 04:25:39;;;;;;;9.45;5.40;;;;;;;28.36;nan;-24601.41;5029936;28;20183;-75
2022/08/08 04:28:05;;;;;;;10.70;5.95;;;;;;;28.98;nan;-24618.09;5028041;28;20229;-76
2022/08/08 04:30:31;;;;;;;9.30;5.30;;;;;;;28.80;nan;-24613.19;5025904;28;20646;-76
2022/08/08 04:32:57;;;;;;;9.15;5.43;;;;;;;28.47;nan;-24604.44;5028640;28;20175;-76
2022/08/08 04:35:22;;;;;;;8.27;4.90;;;;;;;28.31;nan;-24599.91;5028685;28;20186;-75
2022/08/08 04:37:48;;;;;;;8.63;5.18;;;;;;;28.89;nan;-24615.66;5029041;28;20240;-76
2022/08/08 04:40:13;;;;;;;7.20;4.93;;;;;;;29.13;nan;-24622.06;5029287;28;20667;-76
2022/08/08 04:42:39;;;;;;;9.40;5.47;;;;;;;29.37;nan;-24628.63;5029885;28;20187;-76
2022/08/08 04:45:05;;;;;;;9.05;4.68;;;;;;;28.79;nan;-24613.03;5029681;28;20190;-76
2022/08/08 04:47:30;;;;;;;8.07;4.47;;;;;;;28.59;nan;-24607.44;5029007;28;20710;-76
2022/08/08 04:49:56;;;;;;;7.20;4.72;;;;;;;28.48;nan;-24604.69;5028803;28;20294;-76
2022/08/08 04:52:22;;;;;;;7.85;4.80;;;;;;;28.42;nan;-24603.06;5028846;28;20179;-75
2022/08/08 04:54:47;;;;;;;7.85;4.95;;;;;;;28.18;nan;-24596.34;5029359;28;20598;-76
2022/08/08 04:57:13;;;;;;;9.80;5.30;;;;;;;28.09;nan;-24594.03;5027645;28;20221;-76
2022/08/08 04:59:39;;;;;;;7.20;4.55;;;;;;;28.06;nan;-24593.34;5028723;28;20167;-76
2022/08/08 05:02:05;;;;;;;7.93;4.68;;;;;;;27.78;nan;-24585.69;5028113;28;20249;-76
2022/08/08 05:04:30;;;;;;;9.93;5.65;;;;;;;27.63;nan;-24581.56;5028876;28;20179;-76
2022/08/08 05:06:55;;;;;;;7.22;4.78;;;;;;;27.80;nan;-24586.22;5028533;28;20175;-76
2022/08/08 05:09:21;;;;;;;5.55;4.20;;;;;;;28.06;nan;-24593.34;5028302;28;20199;-76
2022/08/08 05:11:48;;;;;;;7.13;4.38;;;;;;;27.50;nan;-24578.16;5030166;28;20163;-76
2022/08/08 05:14:14;;;;;;;6.90;4.72;;;;;;;27.45;nan;-24576.78;5033136;28;20234;-76
2022/08/08 05:16:39;;;;;;;7.63;4.80;;;;;;;27.32;nan;-24573.06;5035149;28;20183;-75
2022/08/08 05:19:10;;;;;;;6.43;4.25;;;;;;;27.16;nan;-24568.94;5034550;28;20519;-76
2022/08/08 05:21:38;;;;;;;9.05;4.53;;;;;;;26.76;nan;-24557.97;5034667;28;20174;-75
2022/08/08 05:24:05;;;;;;;7.82;4.68;;;;;;;26.67;nan;-24555.50;5035978;28;20178;-75
2022/08/08 05:26:30;;;;;;;7.55;4.47;;;;;;;26.33;nan;-24546.31;5036450;28;20313;-75
2022/08/08 05:28:56;;;;;;;7.47;4.72;;;;;;;26.37;nan;-24547.41;5036513;28;20650;-75
2022/08/08 05:31:21;;;;;;;8.68;5.18;;;;;;;26.31;nan;-24545.75;5035878;28;20252;-75
2022/08/08 05:33:47;;;;;;;8.20;5.05;;;;;;;26.07;nan;-24539.16;5053120;28;20187;-75
2022/08/08 05:36:15;;;;;;;9.40;5.28;;;;;;;26.24;nan;-24543.97;5036613;28;20634;-75
2022/08/08 05:38:46;;;;;;;8.52;4.57;;;;;;;26.23;nan;-24543.69;5035452;28;20237;-75
2022/08/08 05:41:16;;;;;;;7.07;4.35;;;;;;;25.62;nan;-24526.94;5034929;28;20197;-76
2022/08/08 05:43:46;;;;;;;9.32;4.72;;;;;;;25.85;nan;-24533.25;5036920;28;20175;-76
2022/08/08 05:46:12;;;;;;;7.15;4.10;;;;;;;25.95;nan;-24536.00;5036368;28;20210;-75
2022/08/08 05:48:38;;;;;;;7.60;4.50;;;;;;;25.96;nan;-24536.28;5050945;28;20553;-75
2022/08/08 05:51:04;;;;;;;9.27;5.20;;;;;;;26.01;nan;-24537.66;5034705;28;20187;-75
2022/08/08 05:53:29;;;;;;;9.93;4.50;;;;;;;26.15;nan;-24541.50;5035898;28;20179;-74
2022/08/08 05:55:57;;;;;;;7.40;4.57;;;;;;;26.00;nan;-24537.22;5035045;28;20321;-74
2022/08/08 05:58:27;;;;;;;14.48;4.53;;;;;;;26.38;nan;-24547.69;5051551;28;20336;-75
2022/08/08 06:01:01;;;;;;;6.00;4.32;;;;;;;26.31;nan;-24545.75;5033121;28;20676;-75
2022/08/08 06:03:28;;;;;;;6.95;4.53;;;;;;;26.25;nan;-24544.25;5035571;28;20186;-76
2022/08/08 06:06:05;;;;;;;6.55;4.30;;;;;;;26.33;nan;-24546.31;5035977;28;20258;-76
2022/08/08 06:08:50;;;;;;;7.63;4.70;;;;;;;26.25;nan;-24544.13;5035648;28;20199;-75
2022/08/08 06:11:16;;;;;;;7.00;4.30;;;;;;;26.13;nan;-24540.81;5036369;28;20190;-75
2022/08/08 06:13:44;;;;;;;7.70;4.65;;;;;;;26.28;nan;-24545.06;5034550;28;20222;-75
2022/08/08 06:16:14;;;;;;;7.25;4.63;;;;;;;26.06;nan;-24539.03;5034190;28;20506;-75
2022/08/08 06:18:40;;;;;;;6.85;4.60;;;;;;;26.57;nan;-24552.75;5036518;28;20178;-75
2022/08/08 06:21:07;;;;;;;6.28;4.25;;;;;;;26.44;nan;-24549.19;5036218;28;20294;-75
2022/08/08 06:23:33;;;;;;;7.43;4.50;;;;;;;26.50;nan;-24550.84;5035351;28;20210;-75
2022/08/08 06:26:04;;;;;;;6.90;4.43;;;;;;;26.58;nan;-24553.03;5031842;28;20631;-75
2022/08/08 06:28:51;;;;;;;7.15;4.80;;;;;;;26.94;nan;-24562.78;5032612;28;20210;-75
2022/08/08 06:31:21;;;;;;;7.55;4.72;;;;;;;27.14;nan;-24568.41;5032261;28;20186;-75
2022/08/08 06:34:09;;;;;;;6.28;4.25;;;;;;;27.05;nan;-24565.94;5032917;28;20530;-74
2022/08/08 06:36:40;;;;;;;7.38;4.38;;;;;;;27.46;nan;-24576.91;5029271;28;20175;-75
2022/08/08 06:39:10;;;;;;;8.38;4.78;;;;;;;27.55;nan;-24579.50;5030923;28;20190;-75
2022/08/08 06:41:49;;;;;;;8.48;5.07;;;;;;;27.75;nan;-24584.72;5031755;28;20179;-75
2022/08/08 06:44:17;;;;;;;11.82;4.55;;;;;;;27.49;nan;-24577.72;5032257;28;20416;-76
2022/08/08 06:46:43;;;;;;;6.05;4.68;;;;;;;27.73;nan;-24584.31;5033166;28;20179;-75
2022/08/08 06:49:10;;;;;;;6.38;4.57;;;;;;;27.97;nan;-24590.88;5031280;28;20593;-75
2022/08/08 06:51:35;;;;;;;7.97;4.72;;;;;;;27.87;nan;-24588.13;5032026;28;20329;-75
2022/08/08 06:54:02;;;;;;;6.15;4.10;;;;;;;28.22;nan;-24597.44;5032557;28;20269;-75
2022/08/08 06:56:29;;;;;;;7.15;4.43;;;;;;;27.81;nan;-24586.50;5032793;28;20176;-74
2022/08/08 06:58:55;;;;;;;6.88;4.38;;;;;;;27.99;nan;-24591.28;5032899;28;20661;-75
2022/08/08 07:01:24;;;;;;;8.15;4.82;;;;;;;28.00;nan;-24591.69;5032038;28;20179;-74
2022/08/08 07:03:57;;;;;;;8.85;4.40;;;;;;;28.19;nan;-24596.78;5031700;28;20550;-75
2022/08/08 07:06:24;;;;;;;9.70;4.40;;;;;;;28.52;nan;-24605.66;5032843;28;20178;-75
2022/08/08 07:09:02;;;;;;;6.70;4.22;;;;;;;28.56;nan;-24606.75;5032592;28;20269;-75
2022/08/08 07:11:29;;;;;;;7.25;4.60;;;;;;;28.64;nan;-24608.94;5033105;28;20182;-74
2022/08/08 07:13:59;;;;;;;5.75;3.97;;;;;;;28.57;nan;-24607.03;5032878;28;20222;-75
2022/08/08 07:16:48;;;;;;;6.43;4.05;;;;;;;28.70;nan;-24610.59;5032240;28;20685;-74
2022/08/08 07:19:35;;;;;;;6.28;4.28;;;;;;;29.01;nan;-24618.78;5046612;28;20206;-75
2022/08/08 07:22:04;;;;;;;8.75;3.92;;;;;;;29.42;nan;-24630.00;5028369;28;20186;-75
2022/08/08 07:24:49;;;;;;;4.80;3.58;;;;;;;29.32;nan;-24627.25;5031742;28;20170;-75
2022/08/08 07:27:15;;;;;;;4.80;3.10;;;;;;;29.25;nan;-24625.34;5031622;28;20210;-75
2022/08/08 07:29:41;;;;;;;5.28;3.65;;;;;;;29.61;nan;-24635.03;5031106;28;20289;-75
2022/08/08 07:32:08;;;;;;;5.35;3.67;;;;;;;29.85;nan;-24641.59;5031203;28;20615;-75
2022/08/08 07:34:35;;;;;;;4.22;3.38;;;;;;;29.57;nan;-24633.94;5031244;28;20174;-75
2022/08/08 07:37:04;;;;;;;5.20;3.75;;;;;;;30.03;nan;-24646.38;5027068;28;20210;-75
2022/08/08 07:39:31;;;;;;;5.38;3.53;;;;;;;29.59;nan;-24634.63;5031809;28;20642;-75
2022/08/08 07:41:59;;;;;;;5.47;3.28;;;;;;;29.91;nan;-24643.09;5032108;28;20174;-75
2022/08/08 07:44:25;;;;;;;4.32;2.90;;;;;;;29.77;nan;-24639.53;5031712;28;20178;-74
2022/08/08 07:46:51;;;;;;;4.30;2.80;;;;;;;29.96;nan;-24644.47;5031110;28;20514;-75
2022/08/08 07:49:16;;;;;;;5.93;3.75;;;;;;;29.96;nan;-24644.47;5029665;28;20276;-75
2022/08/08 07:51:43;;;;;;;4.97;3.42;;;;;;;30.15;nan;-24649.63;5030618;28;20216;-75
2022/08/08 07:54:22;;;;;;;6.47;3.28;;;;;;;30.20;nan;-24651.13;5030637;28;20190;-76
2022/08/08 07:57:04;;;;;;;5.28;3.38;;;;;;;30.38;nan;-24655.91;5028717;28;20174;-75
2022/08/08 07:59:37;;;;;;;4.50;3.35;;;;;;;30.40;nan;-24656.44;5030563;28;20262;-76
2022/08/08 08:02:07;;;;;;;5.20;3.10;;;;;;;30.49;nan;-24658.78;5027448;28;20178;-75
2022/08/08 08:04:35;;;;;;;5.22;3.58;;;;;;;30.46;nan;-24658.09;5029681;28;20178;-75
2022/08/08 08:07:01;;;;;;;4.40;3.38;;;;;;;30.90;nan;-24669.94;5031087;28;20324;-75
2022/08/08 08:09:35;;;;;;;7.05;3.03;;;;;;;31.00;nan;-24672.53;5030046;28;20201;-75
2022/08/08 08:12:01;;;;;;;4.68;3.00;;;;;;;31.16;nan;-24676.88;5027722;28;20723;-75
2022/08/08 08:14:32;;;;;;;3.55;2.75;;;;;;;31.07;nan;-24674.44;5030498;28;20214;-75
2022/08/08 08:16:59;;;;;;;5.65;2.88;;;;;;;31.34;nan;-24681.78;5026391;28;20227;-74
2022/08/08 08:19:33;;;;;;;4.47;2.60;;;;;;;31.02;nan;-24673.06;5029658;28;20175;-75
2022/08/08 08:21:59;;;;;;;3.83;2.95;;;;;;;30.81;nan;-24667.47;5028689;28;20169;-75
2022/08/08 08:24:25;;;;;;;3.08;2.40;;;;;;;30.79;nan;-24666.81;5032500;28;20177;-75
2022/08/08 08:26:51;;;;;;;5.03;2.85;;;;;;;30.88;nan;-24669.38;5032205;28;20175;-75
2022/08/08 08:29:17;;;;;;;3.28;2.30;;;;;;;31.18;nan;-24677.41;5031374;28;20214;-75
2022/08/08 08:31:42;;;;;;;2.85;2.33;;;;;;;31.29;nan;-24680.28;5031309;28;20292;-75
2022/08/08 08:34:07;;;;;;;4.30;2.60;;;;;;;31.58;nan;-24688.31;5030023;28;20261;-75
2022/08/08 08:36:34;;;;;;;4.30;3.00;;;;;;;31.79;nan;-24693.75;5031617;28;20637;-75
2022/08/08 08:38:59;;;;;;;3.08;2.42;;;;;;;31.98;nan;-24698.91;5030690;28;20185;-75
2022/08/08 08:41:27;;;;;;;3.60;2.67;;;;;;;32.22;nan;-24705.28;5031056;28;20543;-75
2022/08/08 08:43:53;;;;;;;3.55;2.75;;;;;;;32.02;nan;-24699.97;5030369;28;20179;-75
2022/08/08 08:46:18;;;;;;;3.15;2.38;;;;;;;32.24;nan;-24705.97;5030786;28;20711;-75
2022/08/08 08:48:45;;;;;;;4.28;2.67;;;;;;;32.21;nan;-24705.00;5031811;28;20715;-75
2022/08/08 08:51:13;;;;;;;2.88;2.42;;;;;;;32.35;nan;-24708.81;5031924;28;20170;-75
2022/08/08 08:53:45;;;;;;;6.53;2.63;;;;;;;32.13;nan;-24702.97;5031887;28;20167;-75
2022/08/08 08:56:12;;;;;;;4.30;2.78;;;;;;;31.86;nan;-24695.63;5031637;28;20253;-75
2022/08/08 08:58:43;;;;;;;3.05;2.50;;;;;;;32.17;nan;-24703.94;5030921;28;20171;-75
2022/08/08 09:01:14;;;;;;;3.22;2.40;;;;;;;32.26;nan;-24706.50;5031171;28;20205;-75
2022/08/08 09:03:42;;;;;;;2.58;2.13;;;;;;;32.20;nan;-24704.75;5029415;28;20219;-75
2022/08/08 09:06:12;;;;;;;2.63;2.20;;;;;;;31.84;nan;-24695.09;5032153;28;20179;-74
2022/08/08 09:08:41;;;;;;;6.97;2.47;;;;;;;32.01;nan;-24699.72;5031038;28;20198;-75
2022/08/08 09:11:07;;;;;;;3.17;2.30;;;;;;;31.84;nan;-24695.09;5030290;28;20236;-75
2022/08/08 09:13:36;;;;;;;3.63;2.35;;;;;;;31.60;nan;-24688.72;5030930;28;20226;-74
2022/08/08 09:16:02;;;;;;;3.75;2.35;;;;;;;31.53;nan;-24686.81;5030965;28;20261;-74
2022/08/08 09:18:28;;;;;;;5.38;2.40;;;;;;;31.61;nan;-24688.97;5030939;28;20175;-74
2022/08/08 09:20:54;;;;;;;6.35;2.65;;;;;;;31.58;nan;-24688.03;5030776;28;20178;-74
2022/08/08 09:23:20;;;;;;;3.25;2.50;;;;;;;31.34;nan;-24681.78;5031411;28;20181;-74
2022/08/08 09:26:00;;;;;;;4.65;2.95;;;;;;;30.85;nan;-24668.44;5030780;28;20178;-75
2022/08/08 09:28:27;;;;;;;3.72;2.58;;;;;;;30.94;nan;-24671.03;5030643;28;20232;-75
2022/08/08 09:31:02;;;;;;;3.47;2.60;;;;;;;31.48;nan;-24685.59;5031853;28;20568;-75
2022/08/08 09:33:30;;;;;;;4.45;2.50;;;;;;;31.77;nan;-24693.31;5031435;28;20176;-74
2022/08/08 09:35:56;;;;;;;4.28;2.53;;;;;;;32.10;nan;-24702.03;5030721;28;20178;-75
2022/08/08 09:38:44;;;;;;;3.05;2.25;;;;;;;32.27;nan;-24706.78;5029316;28;20236;-75
2022/08/08 09:41:14;;;;;;;3.45;2.50;;;;;;;32.65;nan;-24716.81;5028022;28;20245;-75
2022/08/08 09:43:49;;;;;;;4.00;2.67;;;;;;;32.60;nan;-24715.47;5025610;28;20180;-76
2022/08/08 09:46:16;;;;;;;3.22;2.40;;;;;;;32.72;nan;-24718.72;5030365;28;20174;-75
2022/08/08 09:48:44;;;;;;;3.20;2.40;;;;;;;32.94;nan;-24724.69;5030543;28;20238;-76
2022/08/08 09:51:14;;;;;;;2.63;2.08;;;;;;;32.95;nan;-24724.81;5029012;28;20461;-75
2022/08/08 09:54:02;;;;;;;3.17;2.38;;;;;;;33.29;nan;-24734.03;5030353;28;20179;-76
2022/08/08 09:56:36;;;;;;;5.32;2.85;;;;;;;33.31;nan;-24734.56;5029641;28;20186;-76
2022/08/08 09:59:03;;;;;;;3.45;2.60;;;;;;;33.44;nan;-24737.97;5027622;28;20193;-75
2022/08/08 10:01:31;;;;;;;4.40;2.65;;;;;;;33.13;nan;-24729.69;5033805;28;20209;-75
2022/08/08 10:03:58;;;;;;;3.40;2.55;;;;;;;33.19;nan;-24731.31;5033335;28;20178;-75
2022/08/08 10:06:24;;;;;;;4.97;2.58;;;;;;;33.52;nan;-24740.25;5034269;28;22143;-76
2022/08/08 10:08:51;;;;;;;3.00;2.33;;;;;;;33.59;nan;-24742.16;5033700;28;20198;-75
2022/08/08 10:11:18;;;;;;;3.38;2.60;;;;;;;34.06;nan;-24754.59;5033461;28;20183;-75
2022/08/08 10:13:53;;;;;;;2.95;2.60;;;;;;;34.64;nan;-24770.16;5033158;28;20314;-76
2022/08/08 10:16:20;;;;;;;3.63;2.70;;;;;;;34.72;nan;-24772.31;5032728;28;20480;-75
2022/08/08 10:18:45;;;;;;;4.30;2.70;;;;;;;34.72;nan;-24772.31;5033162;28;20650;-75
2022/08/08 10:21:12;;;;;;;3.53;2.72;;;;;;;35.00;nan;-24779.75;5032998;28;20210;-76
2022/08/08 10:23:41;;;;;;;3.42;2.50;;;;;;;34.92;nan;-24777.72;5033312;28;20171;-75
2022/08/08 10:26:14;;;;;;;3.38;2.50;;;;;;;34.76;nan;-24773.41;5032170;28;20265;-75
2022/08/08 10:28:54;;;;;;;4.15;2.50;;;;;;;34.21;nan;-24758.53;5032368;28;20198;-75
2022/08/08 10:34:13;;;;;;;5.32;2.72;;;;;;;33.44;nan;-24737.97;5032396;28;20200;-64
2022/08/08 10:36:41;;;;;;;6.85;2.85;;;;;;;33.07;nan;-24728.22;5033185;28;20185;-64
2022/08/08 10:39:09;;;;;;;3.50;2.63;;;;;;;33.48;nan;-24739.06;5032828;28;20186;-64
2022/08/08 10:41:36;;;;;;;3.75;2.42;;;;;;;32.78;nan;-24720.47;5033154;28;20174;-65
2022/08/08 10:44:04;;;;;;;4.18;2.78;;;;;;;32.71;nan;-24718.44;5031328;28;20187;-65
2022/08/08 10:46:30;;;;;;;2.95;2.65;;;;;;;32.80;nan;-24721.03;5031739;28;20183;-66
2022/08/08 10:48:57;;;;;;;5.55;2.58;;;;;;;32.74;nan;-24719.41;5031173;28;20230;-65
2022/08/08 10:51:29;;;;;;;5.28;2.72;;;;;;;32.99;nan;-24726.03;5030420;28;20229;-66
2022/08/08 10:53:55;;;;;;;3.20;2.50;;;;;;;32.65;nan;-24716.81;5027821;28;20233;-65
2022/08/08 10:56:21;;;;;;;3.38;2.20;;;;;;;32.69;nan;-24717.91;5028796;28;20182;-65
2022/08/08 10:58:56;;;;;;;6.32;2.40;;;;;;;33.15;nan;-24730.38;5032419;28;20269;-65
2022/08/08 11:01:27;;;;;;;4.32;2.42;;;;;;;33.36;nan;-24735.94;5040285;28;20181;-66
2022/08/08 11:03:59;;;;;;;4.22;2.53;;;;;;;33.56;nan;-24741.22;5039172;28;20232;-65
2022/08/08 11:06:35;;;;;;;4.22;2.70;;;;;;;33.33;nan;-24734.97;5037947;28;20276;-66
2022/08/08 11:09:09;;;;;;;5.07;2.60;;;;;;;33.25;nan;-24732.94;5025979;28;20198;-65
2022/08/08 11:11:38;;;;;;;3.38;2.33;;;;;;;33.41;nan;-24737.28;5023973;28;20182;-65
2022/08/08 11:14:05;;;;;;;3.30;2.58;;;;;;;33.09;nan;-24728.75;5033147;28;20229;-65
2022/08/08 11:16:33;;;;;;;4.28;2.58;;;;;;;33.12;nan;-24729.56;5031772;28;20209;-65
2022/08/08 11:19:01;;;;;;;4.35;3.08;;;;;;;32.70;nan;-24718.31;5032265;28;20175;-65
2022/08/08 11:21:35;;;;;;;4.32;2.88;;;;;;;32.66;nan;-24717.09;5031427;28;20186;-66
2022/08/08 11:24:04;;;;;;;3.55;2.10;;;;;;;32.65;nan;-24716.97;5028096;28;20697;-66
2022/08/08 11:26:33;;;;;;;4.80;2.30;;;;;;;32.58;nan;-24715.06;5031889;28;20171;-66
2022/08/08 11:29:03;;;;;;;2.83;2.35;;;;;;;32.48;nan;-24712.19;5032259;28;20190;-65
2022/08/08 11:31:34;;;;;;;2.83;2.00;;;;;;;32.26;nan;-24706.50;5030365;28;20177;-66
2022/08/08 11:34:03;;;;;;;2.60;1.98;;;;;;;32.29;nan;-24707.31;5032012;28;20584;-66
2022/08/08 11:36:29;;;;;;;3.95;2.15;;;;;;;32.27;nan;-24706.66;5032632;28;20190;-66
2022/08/08 11:38:56;;;;;;;3.63;2.08;;;;;;;32.35;nan;-24708.94;5032029;28;20270;-65
2022/08/08 11:41:26;;;;;;;4.03;2.28;;;;;;;32.18;nan;-24704.34;5030480;28;20697;-66
2022/08/08 11:43:56;;;;;;;3.63;2.35;;;;;;;32.50;nan;-24712.75;5032827;28;20210;-66
2022/08/08 11:46:26;;;;;;;3.50;2.10;;;;;;;33.00;nan;-24726.19;5031328;28;20788;-66
2022/08/08 11:48:52;;;;;;;3.20;2.33;;;;;;;30.70;nan;-24664.63;5031666;28;20202;-66
2022/08/08 11:51:21;;;;;;;2.70;2.30;;;;;;;33.58;nan;-24741.75;5029742;28;20201;-66
2022/08/08 11:53:48;;;;;;;3.00;2.45;;;;;;;33.19;nan;-24731.47;5029606;28;20642;-66
2022/08/08 11:56:19;;;;;;;3.20;2.45;;;;;;;32.70;nan;-24718.31;5032476;28;20204;-65
2022/08/08 11:58:44;;;;;;;3.90;2.28;;;;;;;32.79;nan;-24720.75;5030835;28;20171;-65
2022/08/08 12:01:10;;;;;;;2.85;1.98;;;;;;;33.29;nan;-24734.16;5030740;28;20692;-64
2022/08/08 12:03:41;;;;;;;4.18;2.28;;;;;;;33.34;nan;-24735.41;5031491;28;20189;-66
2022/08/08 12:06:14;;;;;;;2.60;2.20;;;;;;;32.76;nan;-24719.94;5030161;28;20181;-65
2022/08/08 12:08:40;;;;;;;2.47;1.83;;;;;;;33.01;nan;-24726.59;5030345;28;20670;-66
2022/08/08 12:11:14;;;;;;;3.17;2.20;;;;;;;32.94;nan;-24724.69;5029055;28;20261;-66